createdAt,value
2018-11-20T00:02:25.659Z,15.77
2018-11-20T00:05:04.696Z,16.77
2018-11-20T00:07:52.104Z,15.80
2018-11-20T00:10:39.337Z,18.30
2018-11-20T00:13:21.618Z,18.17
2018-11-20T00:16:10.337Z,17.97
2018-11-20T00:19:01.688Z,28.27
2018-11-20T00:21:52.997Z,21.67
2018-11-20T00:24:40.605Z,22.60
2018-11-20T00:27:27.835Z,25.97
2018-11-20T00:30:15.320Z,19.97
2018-11-20T00:32:55.962Z,23.20
2018-11-20T00:35:43.271Z,17.17
2018-11-20T00:38:40.737Z,18.83
2018-11-20T00:41:28.048Z,17.70
2018-11-20T00:44:22.917Z,17.53
2018-11-20T00:47:10.078Z,15.37
2018-11-20T00:50:01.456Z,13.77
2018-11-20T00:52:48.444Z,14.60
2018-11-20T00:56:18.046Z,22.20
2018-11-20T00:58:59.233Z,14.37
2018-11-20T01:01:46.534Z,20.47
2018-11-20T01:04:39.742Z,16.27
2018-11-20T01:07:46.760Z,16.57
2018-11-20T01:10:44.427Z,16.63
2018-11-20T01:13:35.644Z,16.67
2018-11-20T01:16:23.057Z,18.50
2018-11-20T01:19:10.202Z,21.63
2018-11-20T01:22:17.014Z,17.03
2018-11-20T01:25:05.674Z,16.00
2018-11-20T01:28:03.330Z,15.63
2018-11-20T01:30:50.471Z,15.93
2018-11-20T01:33:37.794Z,21.63
2018-11-20T01:36:19.930Z,28.20
2018-11-20T01:39:23.888Z,24.73
2018-11-20T01:42:04.268Z,21.80
2018-11-20T01:44:51.372Z,19.33
2018-11-20T01:47:43.276Z,15.77
2018-11-20T01:50:40.802Z,14.13
2018-11-20T01:53:32.580Z,15.13
2018-11-20T01:56:21.095Z,14.50
2018-11-20T01:59:01.148Z,15.80
2018-11-20T02:01:49.999Z,14.13
2018-11-20T02:04:37.289Z,15.13
2018-11-20T02:07:30.981Z,13.97
2018-11-20T02:10:18.047Z,14.57
2018-11-20T02:13:40.926Z,14.50
2018-11-20T02:16:28.128Z,14.70
2018-11-20T02:19:16.884Z,15.57
2018-11-20T02:22:02.974Z,14.60
2018-11-20T02:24:57.528Z,13.97
2018-11-20T02:28:04.187Z,14.30
2018-11-20T02:31:04.765Z,15.47
2018-11-20T02:33:53.248Z,19.50
2018-11-20T02:36:43.965Z,14.27
2018-11-20T02:39:31.252Z,17.50
2018-11-20T02:42:35.112Z,16.33
2018-11-20T02:45:29.771Z,15.40
2018-11-20T02:48:36.492Z,14.07
2018-11-20T02:51:43.225Z,14.80
2018-11-20T02:54:30.403Z,14.07
2018-11-20T02:57:11.980Z,14.83
2018-11-20T03:00:03.459Z,15.30
2018-11-20T03:03:03.942Z,15.70
2018-11-20T03:05:44.307Z,16.57
2018-11-20T03:08:35.755Z,17.87
2018-11-20T03:11:33.264Z,16.93
2018-11-20T03:14:20.414Z,16.63
2018-11-20T03:17:09.054Z,16.00
2018-11-20T03:19:56.690Z,16.57
2018-11-20T03:22:44.134Z,18.27
2018-11-20T03:26:09.742Z,17.47
2018-11-20T03:29:31.879Z,18.13
2018-11-20T03:32:35.537Z,17.27
2018-11-20T03:35:22.651Z,18.17
2018-11-20T03:38:09.905Z,18.87
2018-11-20T03:41:01.235Z,17.87
2018-11-20T03:43:48.169Z,17.37
2018-11-20T03:46:48.826Z,17.33
2018-11-20T03:49:55.610Z,17.47
2018-11-20T03:52:59.129Z,18.40
2018-11-20T03:55:44.759Z,18.40
2018-11-20T03:58:36.013Z,20.77
2018-11-20T04:01:27.543Z,21.30
2018-11-20T04:04:08.404Z,24.20
2018-11-20T04:07:08.788Z,23.40
2018-11-20T04:09:49.097Z,21.93
2018-11-20T04:12:52.910Z,22.40
2018-11-20T04:15:59.581Z,20.67
2018-11-20T04:18:59.906Z,19.23
2018-11-20T04:21:47.127Z,16.67
2018-11-20T04:24:34.670Z,16.90
2018-11-20T04:27:21.987Z,21.37
2018-11-20T04:30:37.453Z,23.60
2018-11-20T04:34:02.937Z,24.27
2018-11-20T04:37:03.951Z,22.13
2018-11-20T04:39:51.215Z,22.83
2018-11-20T04:42:38.349Z,22.00
2018-11-20T04:45:25.975Z,21.27
2018-11-20T04:48:23.507Z,23.93
2018-11-20T04:51:08.432Z,24.90
2018-11-20T04:54:05.042Z,27.87
2018-11-20T04:57:02.697Z,25.60
2018-11-20T05:00:06.340Z,25.27
2018-11-20T05:02:44.260Z,26.43
2018-11-20T05:05:42.019Z,26.27
2018-11-20T05:08:45.710Z,32.03
2018-11-20T05:11:22.077Z,35.77
2018-11-20T05:14:26.058Z,32.07
2018-11-20T05:17:17.652Z,29.73
2018-11-20T05:20:21.396Z,27.43
2018-11-20T05:23:08.992Z,30.03
2018-11-20T05:26:03.537Z,26.90
2018-11-20T05:28:50.480Z,38.70
2018-11-20T05:31:37.690Z,50.43
2018-11-20T05:34:29.152Z,41.27
2018-11-20T05:37:16.169Z,26.50
2018-11-20T05:40:03.343Z,24.70
2018-11-20T05:42:54.847Z,30.50
2018-11-20T05:45:43.440Z,30.30
2018-11-20T05:48:47.078Z,29.10
2018-11-20T05:51:50.900Z,36.20
2018-11-20T05:54:38.602Z,38.27
2018-11-20T05:57:26.452Z,47.00
2018-11-20T06:00:05.669Z,50.10
2018-11-20T06:02:52.850Z,37.43
2018-11-20T06:05:39.577Z,33.33
2018-11-20T06:08:40.040Z,36.77
2018-11-20T06:11:47.046Z,29.83
2018-11-20T06:14:44.930Z,29.30
2018-11-20T06:17:31.929Z,31.53
2018-11-20T06:20:09.187Z,32.70
2018-11-20T06:22:57.840Z,36.53
2018-11-20T06:25:52.653Z,32.53
2018-11-20T06:28:41.383Z,33.77
2018-11-20T06:31:28.492Z,31.90
2018-11-20T06:34:15.733Z,37.13
2018-11-20T06:37:10.164Z,36.90
2018-11-20T06:40:03.373Z,35.67
2018-11-20T06:42:57.813Z,39.17
2018-11-20T06:45:54.091Z,29.23
2018-11-20T06:48:59.324Z,30.63
2018-11-20T06:51:50.864Z,30.97
2018-11-20T06:54:38.306Z,34.97
2018-11-20T06:57:38.844Z,36.83
2018-11-20T07:00:39.862Z,53.83
2018-11-20T07:03:46.530Z,46.70
2018-11-20T07:06:44.122Z,56.60
2018-11-20T07:09:50.928Z,57.73
2018-11-20T07:12:54.689Z,52.57
2018-11-20T07:15:42.256Z,51.50
2018-11-20T07:18:30.349Z,45.83
2018-11-20T07:21:19.046Z,41.03
2018-11-20T07:24:04.269Z,44.67
2018-11-20T07:26:51.607Z,39.70
2018-11-20T07:29:38.985Z,33.83
2018-11-20T07:32:33.508Z,41.27
2018-11-20T07:35:31.362Z,33.27
2018-11-20T07:38:22.802Z,96.87
2018-11-20T07:41:09.921Z,145.33
2018-11-20T07:43:57.446Z,71.43
2018-11-20T07:46:44.402Z,154.80
2018-11-20T07:49:35.613Z,47.60
2018-11-20T07:52:23.006Z,101.13
2018-11-20T07:55:10.255Z,58.53
2018-11-20T07:57:57.542Z,25.03
2018-11-20T08:00:51.942Z,18.57
2018-11-20T08:03:43.017Z,14.60
2018-11-20T08:06:30.336Z,15.60
2018-11-20T08:09:27.756Z,15.60
2018-11-20T08:12:14.795Z,16.50
2018-11-20T08:15:01.971Z,14.23
2018-11-20T08:18:00.125Z,17.97
2018-11-20T08:20:44.876Z,19.83
2018-11-20T08:23:42.235Z,21.60
2018-11-20T08:26:33.619Z,19.33
2018-11-20T08:29:20.863Z,23.33
2018-11-20T08:32:19.286Z,25.70
2018-11-20T08:35:14.757Z,26.53
2018-11-20T08:38:09.133Z,28.77
2018-11-20T08:40:56.431Z,21.80
2018-11-20T08:43:43.583Z,31.20
2018-11-20T08:46:41.064Z,26.63
2018-11-20T08:49:45.011Z,25.83
2018-11-20T08:52:48.665Z,26.13
2018-11-20T08:55:35.834Z,19.00
2018-11-20T08:58:23.721Z,42.27
2018-11-20T09:01:10.951Z,32.20
2018-11-20T09:04:17.939Z,30.40
2018-11-20T09:07:12.198Z,24.23
2018-11-20T09:09:59.204Z,17.23
2018-11-20T09:12:46.520Z,29.73
2018-11-20T09:15:35.192Z,35.10
2018-11-20T09:18:22.251Z,26.63
2018-11-20T09:21:04.732Z,20.80
2018-11-20T09:23:50.094Z,21.30
2018-11-20T09:26:49.306Z,21.20
2018-11-20T09:29:40.715Z,37.90
2018-11-20T09:32:19.270Z,45.60
2018-11-20T09:35:11.041Z,44.10
2018-11-20T09:38:08.287Z,43.97
2018-11-20T09:41:12.993Z,35.23
2018-11-20T09:44:14.804Z,38.17
2018-11-20T09:47:21.394Z,38.30
2018-11-20T09:50:22.275Z,41.33
2018-11-20T09:53:09.842Z,35.57
2018-11-20T09:56:07.241Z,38.80
2018-11-20T09:59:11.074Z,30.07
2018-11-20T10:01:59.600Z,31.40
2018-11-20T10:04:46.387Z,29.30
2018-11-20T10:07:50.044Z,25.70
2018-11-20T10:10:47.265Z,25.30
2018-11-20T10:13:42.161Z,23.87
2018-11-20T10:16:35.140Z,33.07
2018-11-20T10:19:29.707Z,35.17
2018-11-20T10:22:27.283Z,25.50
2018-11-20T10:25:24.973Z,27.03
2018-11-20T10:28:28.788Z,28.00
2018-11-20T10:31:16.158Z,39.33
2018-11-20T10:34:19.977Z,37.17
2018-11-20T10:37:23.399Z,45.90
2018-11-20T10:40:07.130Z,27.10
2018-11-20T10:43:04.582Z,24.37
2018-11-20T10:46:40.619Z,24.67
2018-11-20T10:49:37.320Z,27.40
2018-11-20T10:52:25.227Z,28.37
2018-11-20T10:55:19.233Z,30.93
2018-11-20T10:58:05.696Z,38.57
2018-11-20T11:00:52.310Z,34.57
2018-11-20T11:03:38.991Z,29.90
2018-11-20T11:06:25.856Z,26.83
2018-11-20T11:09:12.319Z,26.97
2018-11-20T11:12:18.560Z,25.50
2018-11-20T11:15:18.603Z,24.93
2018-11-20T11:18:21.665Z,25.37
2018-11-20T11:21:07.276Z,27.03
2018-11-20T11:23:53.525Z,25.23
2018-11-20T11:26:47.426Z,25.97
2018-11-20T11:29:35.254Z,26.80
2018-11-20T11:32:31.875Z,30.40
2018-11-20T11:35:22.221Z,32.57
2018-11-20T11:38:22.023Z,41.67
2018-11-20T11:41:05.015Z,38.90
2018-11-20T11:43:52.793Z,41.50
2018-11-20T11:46:40.466Z,49.33
2018-11-20T11:49:46.340Z,40.50
2018-11-20T11:52:52.592Z,44.03
2018-11-20T11:55:39.225Z,36.37
2018-11-20T11:58:35.968Z,33.53
2018-11-20T12:01:23.271Z,43.23
2018-11-20T12:06:50.599Z,38.50
2018-11-20T12:09:38.187Z,35.13
2018-11-20T12:12:23.293Z,33.67
2018-11-20T12:15:08.799Z,30.57
2018-11-20T12:17:53.596Z,29.77
2018-11-20T12:20:33.733Z,34.63
2018-11-20T12:23:20.016Z,39.57
2018-11-20T12:26:06.813Z,41.30
2018-11-20T12:28:57.960Z,34.37
2018-11-20T12:31:45.540Z,42.50
2018-11-20T12:34:51.358Z,38.53
2018-11-20T12:37:37.838Z,39.73
2018-11-20T12:40:29.001Z,54.33
2018-11-20T12:43:35.663Z,40.90
2018-11-20T12:46:16.393Z,44.30
2018-11-20T12:49:07.408Z,41.03
2018-11-20T12:51:58.101Z,41.27
2018-11-20T12:54:44.517Z,50.70
2018-11-20T12:57:19.245Z,41.30
2018-11-20T13:00:12.734Z,90.20
2018-11-20T13:02:59.340Z,46.90
2018-11-20T13:05:59.372Z,44.93
2018-11-20T13:09:06.115Z,56.13
2018-11-20T13:11:53.895Z,41.10
2018-11-20T13:14:50.871Z,40.70
2018-11-20T13:17:33.637Z,36.90
2018-11-20T13:20:29.634Z,36.43
2018-11-20T13:23:16.954Z,36.23
2018-11-20T13:26:03.396Z,34.53
2018-11-20T13:28:51.110Z,36.53
2018-11-20T13:31:44.537Z,36.93
2018-11-20T13:34:44.182Z,39.40
2018-11-20T13:37:27.342Z,38.40
2018-11-20T13:40:23.989Z,37.70
2018-11-20T13:43:04.281Z,37.03
2018-11-20T13:45:43.743Z,41.60
2018-11-20T13:48:30.774Z,43.37
2018-11-20T13:51:08.959Z,51.23
2018-11-20T13:54:00.762Z,47.80
2018-11-20T13:56:52.606Z,45.47
2018-11-20T13:59:40.416Z,44.37
2018-11-20T14:02:26.798Z,42.50
2018-11-20T14:05:13.216Z,50.93
2018-11-20T14:08:19.477Z,52.90
2018-11-20T14:11:06.119Z,43.73
2018-11-20T14:13:46.669Z,49.87
2018-11-20T14:16:34.538Z,49.17
2018-11-20T14:19:21.124Z,52.07
2018-11-20T14:22:24.008Z,48.40
2018-11-20T14:25:06.458Z,55.27
2018-11-20T14:28:04.057Z,57.87
2018-11-20T14:31:01.016Z,51.13
2018-11-20T14:34:06.865Z,53.43
2018-11-20T14:36:58.015Z,48.90
2018-11-20T14:39:48.634Z,47.67
2018-11-20T14:42:39.368Z,43.93
2018-11-20T14:45:45.043Z,41.50
2018-11-20T14:48:31.416Z,40.63
2018-11-20T14:51:23.482Z,39.60
2018-11-20T14:54:09.667Z,44.90
2018-11-20T14:57:03.758Z,45.37
2018-11-20T14:59:50.649Z,44.60
2018-11-20T15:02:37.109Z,37.83
2018-11-20T15:05:37.434Z,48.40
2018-11-20T15:08:22.130Z,40.37
2018-11-20T15:11:25.416Z,81.23
2018-11-20T15:14:28.215Z,85.63
2018-11-20T15:17:16.700Z,92.27
2018-11-20T15:20:03.258Z,66.77
2018-11-20T15:22:53.823Z,52.80
2018-11-20T15:25:49.125Z,71.40
2018-11-20T15:28:37.012Z,102.33
2018-11-20T15:31:36.813Z,75.47
2018-11-20T15:34:33.856Z,55.87
2018-11-20T15:37:24.432Z,49.90
2018-11-20T15:40:10.887Z,51.97
2018-11-20T15:43:17.045Z,46.53
2018-11-20T15:46:04.905Z,55.30
2018-11-20T15:48:49.832Z,43.23
2018-11-20T15:51:43.793Z,47.53
2018-11-20T15:54:30.147Z,51.60
2018-11-20T15:57:35.823Z,51.20
2018-11-20T16:00:26.627Z,51.87
2018-11-20T16:03:29.753Z,55.53
2018-11-20T16:06:23.892Z,51.17
2018-11-20T16:09:11.605Z,50.33
2018-11-20T16:11:58.279Z,48.53
2018-11-20T16:14:44.461Z,47.67
2018-11-20T16:17:25.133Z,49.20
2018-11-20T16:20:25.163Z,60.33
2018-11-20T16:23:19.022Z,53.57
2018-11-20T16:26:06.854Z,46.03
2018-11-20T16:29:00.746Z,44.00
2018-11-20T16:31:47.398Z,45.87
2018-11-20T16:34:27.507Z,47.10
2018-11-20T16:37:17.978Z,45.70
2018-11-20T16:40:04.206Z,48.50
2018-11-20T16:42:52.038Z,49.10
2018-11-20T16:45:37.823Z,48.57
2018-11-20T16:48:25.747Z,52.40
2018-11-20T16:51:16.889Z,50.10
2018-11-20T16:54:19.716Z,50.17
2018-11-20T16:57:25.417Z,48.20
2018-11-20T17:00:12.071Z,50.00
2018-11-20T17:02:58.631Z,50.17
2018-11-20T17:05:52.356Z,55.23
2018-11-20T17:08:58.095Z,58.63
2018-11-20T17:11:48.861Z,52.93
2018-11-20T17:14:37.149Z,56.43
2018-11-20T17:17:23.363Z,59.57
2018-11-20T17:20:07.406Z,52.83
2018-11-20T17:23:08.333Z,53.60
2018-11-20T17:25:53.716Z,52.03
2018-11-20T17:28:36.058Z,53.47
2018-11-20T17:31:31.503Z,57.93
2018-11-20T17:34:18.043Z,59.90
2018-11-20T17:37:11.840Z,52.67
2018-11-20T17:39:59.720Z,72.30
2018-11-20T17:42:46.342Z,58.13
2018-11-20T17:45:32.033Z,56.10
2018-11-20T17:48:18.966Z,71.83
2018-11-20T17:51:21.978Z,62.03
2018-11-20T17:54:12.303Z,53.43
2018-11-20T17:57:04.489Z,53.47
2018-11-20T18:00:01.178Z,51.20
2018-11-20T18:02:58.178Z,51.23
2018-11-20T18:05:44.589Z,53.93
2018-11-20T18:08:25.468Z,55.23
2018-11-20T18:11:11.743Z,55.80
2018-11-20T18:13:53.385Z,60.00
2018-11-20T18:16:40.463Z,55.50
2018-11-20T18:19:27.131Z,53.87
2018-11-20T18:22:24.110Z,53.20
2018-11-20T18:25:18.018Z,53.63
2018-11-20T18:28:03.598Z,54.10
2018-11-20T18:31:06.760Z,61.90
2018-11-20T18:33:54.587Z,62.30
2018-11-20T18:36:54.877Z,61.47
2018-11-20T18:39:48.544Z,61.30
2018-11-20T18:42:38.411Z,51.33
2018-11-20T18:45:33.131Z,53.93
2018-11-20T18:48:26.549Z,59.10
2018-11-20T18:51:12.913Z,55.57
2018-11-20T18:54:03.117Z,48.07
2018-11-20T18:56:50.745Z,43.07
2018-11-20T18:59:44.099Z,43.57
2018-11-20T19:02:34.809Z,43.00
2018-11-20T19:05:22.760Z,44.67
2018-11-20T19:08:11.902Z,49.17
2018-11-20T19:10:59.797Z,52.97
2018-11-20T19:13:53.893Z,46.13
2018-11-20T19:16:36.444Z,48.30
2018-11-20T19:19:24.579Z,49.00
2018-11-20T19:22:10.993Z,50.37
2018-11-20T19:24:56.220Z,56.97
2018-11-20T19:27:44.621Z,50.97
2018-11-20T19:30:38.344Z,46.17
2018-11-20T19:33:30.911Z,45.83
2018-11-20T19:36:24.670Z,46.40
2018-11-20T19:39:11.557Z,42.20
2018-11-20T19:42:08.224Z,39.80
2018-11-20T19:44:58.962Z,41.17
2018-11-20T19:47:45.762Z,42.47
2018-11-20T19:50:36.559Z,42.30
2018-11-20T19:53:30.372Z,42.70
2018-11-20T19:56:16.914Z,40.20
2018-11-20T19:59:10.898Z,38.13
2018-11-20T20:01:57.272Z,40.03
2018-11-20T20:04:43.374Z,40.77
2018-11-20T20:07:37.089Z,39.90
2018-11-20T20:10:37.319Z,37.40
2018-11-20T20:13:28.737Z,62.83
2018-11-20T20:16:10.750Z,54.70
2018-11-20T20:18:57.127Z,42.23
2018-11-20T20:21:43.934Z,43.33
2018-11-20T20:24:30.488Z,33.47
2018-11-20T20:27:17.013Z,34.60
2018-11-20T20:30:03.804Z,32.97
2018-11-20T20:32:57.601Z,34.03
2018-11-20T20:35:48.042Z,37.07
2018-11-20T20:38:35.944Z,40.53
2018-11-20T20:41:26.895Z,38.23
2018-11-20T20:44:13.420Z,41.40
2018-11-20T20:47:00.299Z,38.13
2018-11-20T20:49:50.953Z,36.10
2018-11-20T20:52:37.587Z,35.67
2018-11-20T20:55:28.951Z,35.37
2018-11-20T20:58:19.426Z,35.03
2018-11-20T21:01:06.061Z,37.20
2018-11-20T21:03:52.823Z,36.37
2018-11-20T21:06:36.833Z,38.70
2018-11-20T21:09:26.818Z,35.10
2018-11-20T21:12:14.701Z,31.57
2018-11-20T21:15:08.296Z,32.30
2018-11-20T21:17:54.403Z,33.10
2018-11-20T21:20:41.075Z,34.73
2018-11-20T21:23:21.220Z,32.90
2018-11-20T21:26:11.896Z,36.27
2018-11-20T21:29:17.533Z,37.60
2018-11-20T21:32:03.773Z,36.23
2018-11-20T21:34:55.135Z,39.60
2018-11-20T21:37:36.713Z,38.43
2018-11-20T21:40:40.305Z,41.73
2018-11-20T21:43:37.017Z,41.90
2018-11-20T21:46:23.626Z,40.57
2018-11-20T21:49:17.565Z,39.70
2018-11-20T21:52:14.305Z,39.90
2018-11-20T21:55:04.588Z,38.13
2018-11-20T21:57:49.037Z,39.53
2018-11-20T22:00:50.542Z,39.67
2018-11-20T22:03:37.177Z,40.93
2018-11-20T22:06:24.020Z,44.60
2018-11-20T22:09:24.161Z,40.60
2018-11-20T22:12:14.809Z,40.57
2018-11-20T22:14:56.642Z,38.20
2018-11-20T22:17:50.460Z,38.37
2018-11-20T22:20:50.003Z,38.83
2018-11-20T22:23:43.773Z,38.33
2018-11-20T22:26:22.967Z,37.07
2018-11-20T22:29:19.841Z,38.40
2018-11-20T22:32:06.412Z,39.30
2018-11-20T22:34:54.991Z,38.03
2018-11-20T22:37:45.482Z,38.00
2018-11-20T22:40:42.395Z,35.43
2018-11-20T22:43:31.242Z,37.13
2018-11-20T22:46:36.978Z,38.80
2018-11-20T22:49:40.338Z,39.33
2018-11-20T22:52:19.718Z,40.50
2018-11-20T22:55:10.441Z,40.30
2018-11-20T22:58:08.960Z,38.83
2018-11-20T23:01:03.969Z,38.90
2018-11-20T23:03:45.151Z,36.73
2018-11-20T23:06:31.668Z,34.80
2018-11-20T23:09:00.542Z,34.80
2018-11-20T23:11:29.277Z,32.83
2018-11-20T23:13:57.969Z,33.70
2018-11-20T23:16:26.803Z,35.07
2018-11-20T23:18:55.550Z,37.17
2018-11-20T23:21:24.452Z,37.73
2018-11-20T23:23:53.252Z,39.30
2018-11-20T23:26:22.112Z,48.43
2018-11-20T23:28:50.956Z,47.17
2018-11-20T23:31:19.833Z,46.17
2018-11-20T23:33:48.772Z,43.87
2018-11-20T23:36:17.501Z,41.60
2018-11-20T23:38:46.395Z,42.00
2018-11-20T23:41:15.082Z,42.37
2018-11-20T23:43:43.879Z,42.57
2018-11-20T23:46:12.687Z,43.40
2018-11-20T23:48:41.592Z,39.67
2018-11-20T23:51:10.450Z,40.70
2018-11-20T23:53:39.332Z,39.90
2018-11-20T23:56:08.127Z,38.00
2018-11-20T23:58:36.999Z,38.73
